createdAt,value
2019-01-12T00:01:21.723Z,84.60
2019-01-12T00:03:58.492Z,84.57
2019-01-12T00:06:32.892Z,84.55
2019-01-12T00:09:18.024Z,84.52
2019-01-12T00:11:53.295Z,84.49
2019-01-12T00:14:24.704Z,84.48
2019-01-12T00:16:57.054Z,84.49
2019-01-12T00:19:42.639Z,84.47
2019-01-12T00:22:35.682Z,84.47
2019-01-12T00:25:30.380Z,84.46
2019-01-12T00:28:49.909Z,84.45
2019-01-12T00:31:47.151Z,84.41
2019-01-12T00:34:46.669Z,84.39
2019-01-12T00:37:44.200Z,84.38
2019-01-12T00:40:29.072Z,84.35
2019-01-12T00:43:22.931Z,84.36
2019-01-12T00:49:01.251Z,84.30
2019-01-12T00:51:49.065Z,84.27
2019-01-12T00:54:48.519Z,84.25
2019-01-12T00:57:50.687Z,84.23
2019-01-12T01:03:39.423Z,84.19
2019-01-12T01:06:19.845Z,84.21
2019-01-12T01:09:01.523Z,84.18
2019-01-12T01:11:38.151Z,84.18
2019-01-12T01:14:28.252Z,84.13
2019-01-12T01:17:36.550Z,84.15
2019-01-12T01:20:41.165Z,84.15
2019-01-12T01:23:10.498Z,84.13
2019-01-12T01:25:59.742Z,84.09
2019-01-12T01:28:50.354Z,84.08
2019-01-12T01:32:12.358Z,84.06
2019-01-12T01:35:20.836Z,84.05
2019-01-12T01:38:03.545Z,84.02
2019-01-12T01:41:00.969Z,83.97
2019-01-12T01:44:05.324Z,83.97
2019-01-12T01:46:45.089Z,83.94
2019-01-12T01:49:43.803Z,83.94
2019-01-12T01:52:52.210Z,83.90
2019-01-12T02:11:13.678Z,83.86
2019-01-12T02:16:17.693Z,83.80
2019-01-12T02:19:04.221Z,83.79
2019-01-12T02:34:06.924Z,83.71
2019-01-12T02:35:24.992Z,83.68
2019-01-12T02:38:13.997Z,83.67
2019-01-12T02:41:23.704Z,83.67
2019-01-12T02:44:04.977Z,83.65
2019-01-12T02:47:04.750Z,83.63
2019-01-12T02:49:52.966Z,83.62
2019-01-12T02:59:30.492Z,83.56
2019-01-12T03:02:47.567Z,83.54
2019-01-12T03:06:02.338Z,83.51
2019-01-12T03:08:28.071Z,83.48
2019-01-12T03:11:00.724Z,83.47
2019-01-12T03:16:48.816Z,83.47
2019-01-12T03:22:58.810Z,83.41
2019-01-12T03:25:43.791Z,83.38
2019-01-12T03:28:56.077Z,83.35
2019-01-12T03:35:51.356Z,83.31
2019-01-12T03:48:24.680Z,83.26
2019-01-12T03:54:10.721Z,83.22
2019-01-12T03:56:46.075Z,83.22
2019-01-12T03:59:27.369Z,83.20
2019-01-12T04:02:00.091Z,83.18
2019-01-12T04:04:34.832Z,83.19
2019-01-12T04:07:10.376Z,83.20
2019-01-12T04:09:45.364Z,83.17
2019-01-12T04:12:18.451Z,83.15
2019-01-12T04:18:12.487Z,83.15
2019-01-12T04:21:09.003Z,83.13
2019-01-12T04:24:21.057Z,83.10
2019-01-12T04:32:07.956Z,83.08
2019-01-12T04:34:50.347Z,83.03
2019-01-12T04:37:33.347Z,83.02
2019-01-12T04:40:31.818Z,83.03
2019-01-12T04:43:47.701Z,83.05
2019-01-12T04:47:03.911Z,83.03
2019-01-12T04:49:45.566Z,83.01
2019-01-12T04:52:42.701Z,83.00
2019-01-12T04:55:42.127Z,83.03
2019-01-12T04:58:41.126Z,82.98
2019-01-12T05:01:29.241Z,82.98
2019-01-12T05:04:08.798Z,82.97
2019-01-12T05:06:49.475Z,82.92
2019-01-12T05:09:49.799Z,82.92
2019-01-12T05:16:04.477Z,82.89
2019-01-12T05:18:53.416Z,82.88
2019-01-12T05:21:37.049Z,82.89
2019-01-12T05:24:40.413Z,82.85
2019-01-12T05:27:51.620Z,82.86
2019-01-12T05:31:16.135Z,82.83
2019-01-12T05:43:41.592Z,82.82
2019-01-12T05:46:54.467Z,82.78
2019-01-12T05:49:30.666Z,82.79
2019-01-12T05:52:10.459Z,82.78
2019-01-12T05:54:43.236Z,82.76
2019-01-12T05:57:42.003Z,82.74
2019-01-12T06:00:44.527Z,82.72
2019-01-12T06:04:19.225Z,82.71
2019-01-12T06:06:30.257Z,82.74
2019-01-12T06:12:38.113Z,82.68
2019-01-12T06:15:19.688Z,82.68
2019-01-12T06:18:32.390Z,82.67
2019-01-12T06:21:40.284Z,82.69
2019-01-12T06:24:47.380Z,82.67
2019-01-12T06:27:15.717Z,82.65
2019-01-12T06:30:03.150Z,82.66
2019-01-12T06:32:47.269Z,82.66
2019-01-12T06:35:15.612Z,82.68
2019-01-12T06:38:06.882Z,82.66
2019-01-12T06:41:04.902Z,82.62
2019-01-12T06:44:03.696Z,82.64
2019-01-12T06:49:57.952Z,82.60
2019-01-12T06:52:59.345Z,82.61
2019-01-12T06:55:58.951Z,82.60
2019-01-12T06:58:41.786Z,82.58
2019-01-12T07:08:01.114Z,82.52
2019-01-12T07:08:32.031Z,82.55
2019-01-12T07:14:31.915Z,82.48
2019-01-12T07:17:09.569Z,82.48
2019-01-12T07:26:17.556Z,82.45
2019-01-12T07:29:18.911Z,82.41
2019-01-12T07:32:34.409Z,82.42
2019-01-12T07:35:40.303Z,82.39
2019-01-12T07:39:40.183Z,82.41
2019-01-12T07:45:29.394Z,82.40
2019-01-12T07:48:26.518Z,82.39
2019-01-12T07:55:20.401Z,82.39
2019-01-12T07:58:27.253Z,82.37
2019-01-12T08:01:13.723Z,82.40
2019-01-12T08:11:05.024Z,82.39
2019-01-12T08:13:55.636Z,82.42
2019-01-12T08:16:55.830Z,82.40
2019-01-12T08:20:02.060Z,82.39
2019-01-12T08:22:22.655Z,82.40
2019-01-12T08:24:57.960Z,82.39
2019-01-12T08:27:54.670Z,82.40
2019-01-12T08:30:34.031Z,82.41
2019-01-12T08:33:40.929Z,82.41
2019-01-12T08:36:20.148Z,82.41
2019-01-12T08:39:22.083Z,82.41
2019-01-12T08:42:09.086Z,82.39
2019-01-12T08:44:50.053Z,82.41
2019-01-12T08:48:29.242Z,82.41
2019-01-12T08:54:36.354Z,82.42
2019-01-12T08:57:29.357Z,82.42
2019-01-12T09:04:04.924Z,82.44
2019-01-12T09:07:48.798Z,82.44
2019-01-12T09:10:37.660Z,82.46
2019-01-12T09:13:19.907Z,82.47
2019-01-12T09:16:10.416Z,82.47
2019-01-12T09:19:00.031Z,82.49
2019-01-12T09:22:30.583Z,82.49
2019-01-12T09:25:34.747Z,82.51
2019-01-12T09:28:22.698Z,82.52
2019-01-12T09:31:21.770Z,82.54
2019-01-12T09:34:25.693Z,82.56
2019-01-12T09:37:57.267Z,82.58
2019-01-12T09:41:17.919Z,82.59
2019-01-12T09:44:12.120Z,82.59
2019-01-12T09:47:43.733Z,82.58
2019-01-12T09:51:07.885Z,82.59
2019-01-12T09:54:05.808Z,82.60
2019-01-12T10:00:04.940Z,82.63
2019-01-12T10:02:54.261Z,82.62
2019-01-12T10:06:26.260Z,82.62
2019-01-12T10:09:19.258Z,82.64
2019-01-12T10:12:23.007Z,82.63
2019-01-12T10:15:15.008Z,82.64
2019-01-12T10:18:39.158Z,82.65
2019-01-12T10:21:47.461Z,82.64
2019-01-12T10:24:57.086Z,82.65
2019-01-12T10:35:05.280Z,82.67
2019-01-12T10:37:15.608Z,82.68
2019-01-12T10:40:20.477Z,82.71
2019-01-12T10:43:20.640Z,82.71
2019-01-12T10:47:00.483Z,82.73
2019-01-12T11:03:01.117Z,83.45
2019-01-12T11:06:15.634Z,83.79
2019-01-12T11:09:54.605Z,83.87
2019-01-12T11:13:09.918Z,83.87
2019-01-12T11:19:21.259Z,83.74
2019-01-12T11:22:40.060Z,83.74
2019-01-12T11:29:15.336Z,83.80
2019-01-12T11:34:49.853Z,83.80
2019-01-12T11:37:33.539Z,83.81
2019-01-12T11:40:34.178Z,83.72
2019-01-12T11:49:43.862Z,83.64
2019-01-12T11:52:16.949Z,83.70
2019-01-12T12:01:15.698Z,84.03
2019-01-12T12:06:49.091Z,84.11
2019-01-12T12:11:46.665Z,83.86
2019-01-12T12:15:02.881Z,83.59
2019-01-12T12:17:34.768Z,83.43
2019-01-12T12:20:08.046Z,83.38
2019-01-12T12:22:40.770Z,83.26
2019-01-12T12:25:14.904Z,83.15
2019-01-12T12:27:52.920Z,83.07
2019-01-12T12:43:34.189Z,82.75
2019-01-12T12:46:49.968Z,82.68
2019-01-12T13:04:45.386Z,82.40
2019-01-12T13:28:58.948Z,82.04
2019-01-12T13:31:49.973Z,82.00
2019-01-12T13:44:29.551Z,81.79
2019-01-12T13:50:42.282Z,81.71
2019-01-12T13:54:21.410Z,81.67
2019-01-12T13:56:24.443Z,81.62
2019-01-12T14:00:10.276Z,81.58
2019-01-12T14:03:18.895Z,81.54
2019-01-12T14:08:50.612Z,81.42
2019-01-12T14:11:50.038Z,81.38
2019-01-12T14:17:48.693Z,81.32
2019-01-12T14:22:06.831Z,81.25
2019-01-12T14:29:10.644Z,81.18
2019-01-12T14:45:10.625Z,81.05
2019-01-12T14:47:41.019Z,80.99
2019-01-12T14:50:12.057Z,80.97
2019-01-12T14:52:42.898Z,80.96
2019-01-12T14:55:14.265Z,80.96
2019-01-12T14:57:46.639Z,80.90
2019-01-12T15:00:24.656Z,80.90
2019-01-12T15:03:04.308Z,80.86
2019-01-12T15:05:36.615Z,80.83
2019-01-12T15:08:32.786Z,80.79
2019-01-12T15:11:27.396Z,80.78
2019-01-12T15:21:24.764Z,80.68
2019-01-12T15:27:42.094Z,80.68
2019-01-12T15:33:45.766Z,80.68
2019-01-12T15:36:17.158Z,80.69
2019-01-12T15:38:55.301Z,80.65
2019-01-12T15:45:02.263Z,80.62
2019-01-12T15:51:39.715Z,80.56
2019-01-12T15:54:33.571Z,80.57
2019-01-12T16:03:59.849Z,80.55
2019-01-12T16:06:58.257Z,80.50
2019-01-12T16:16:17.609Z,80.46
2019-01-12T16:18:28.511Z,80.44
2019-01-12T16:25:30.118Z,80.45
2019-01-12T16:31:43.623Z,80.39
2019-01-12T16:37:28.868Z,80.36
2019-01-12T16:43:56.043Z,80.32
2019-01-12T17:09:11.545Z,80.30
2019-01-12T17:15:34.888Z,80.26
2019-01-12T17:18:48.405Z,80.25
2019-01-12T17:22:17.820Z,80.26
2019-01-12T17:24:39.027Z,80.32
2019-01-12T17:55:23.308Z,80.21
2019-01-12T18:15:18.986Z,80.10
2019-01-12T18:18:20.489Z,80.08
2019-01-12T18:28:22.313Z,80.04
2019-01-12T18:37:42.326Z,80.01
2019-01-12T18:40:34.633Z,79.98
2019-01-12T18:55:21.519Z,79.95
2019-01-12T19:10:14.514Z,79.96
2019-01-12T19:16:21.140Z,79.97
2019-01-12T19:29:29.027Z,79.99
2019-01-12T19:30:52.062Z,80.00
2019-01-12T19:43:10.153Z,79.96
2019-01-12T20:03:54.897Z,79.98
2019-01-12T20:12:55.038Z,79.92
2019-01-12T20:22:30.041Z,79.86
2019-01-12T20:36:02.410Z,79.83
2019-01-12T20:38:33.155Z,79.80
2019-01-12T20:44:45.670Z,79.79
2019-01-12T20:48:24.567Z,79.81
2019-01-12T21:16:35.180Z,79.73
2019-01-12T21:23:30.112Z,79.71
2019-01-12T21:25:49.339Z,79.69
2019-01-12T21:28:31.102Z,79.67
2019-01-12T21:31:30.993Z,79.63
2019-01-12T21:34:20.294Z,79.64
2019-01-12T21:44:23.128Z,79.58
2019-01-12T21:47:13.212Z,79.58
2019-01-12T21:58:30.550Z,79.46
2019-01-12T22:05:07.671Z,79.43
2019-01-12T22:08:31.846Z,79.39
2019-01-12T22:11:40.289Z,79.36
2019-01-12T22:14:18.830Z,79.34
2019-01-12T22:25:21.211Z,79.31
2019-01-12T22:28:03.486Z,79.27
2019-01-12T22:43:24.807Z,79.23
2019-01-12T22:46:12.969Z,79.22
2019-01-12T22:49:13.742Z,79.24
2019-01-12T22:52:41.695Z,79.25
2019-01-12T22:55:51.454Z,79.25
2019-01-12T23:01:47.555Z,79.21
2019-01-12T23:11:58.524Z,79.24
2019-01-12T23:14:34.127Z,79.21
2019-01-12T23:24:32.519Z,79.15
2019-01-12T23:30:49.937Z,79.11
2019-01-12T23:35:15.539Z,79.11
2019-01-12T23:44:48.504Z,79.14
2019-01-12T23:50:19.807Z,79.19
2019-01-12T23:53:28.369Z,79.22
2019-01-12T23:59:34.888Z,79.26
